createdAt,value
2019-02-21T00:02:26.909Z,7.80
2019-02-21T00:04:57.238Z,7.60
2019-02-21T00:07:46.600Z,7.40
2019-02-21T00:10:35.989Z,7.50
2019-02-21T00:13:25.355Z,7.60
2019-02-21T00:16:14.834Z,7.60
2019-02-21T00:19:04.236Z,7.60
2019-02-21T00:21:46.182Z,7.60
2019-02-21T00:24:28.910Z,7.60
2019-02-21T00:27:11.174Z,7.60
2019-02-21T00:29:52.971Z,7.50
2019-02-21T00:32:35.077Z,7.50
2019-02-21T00:35:20.368Z,7.70
2019-02-21T00:38:02.421Z,7.60
2019-02-21T00:40:44.527Z,7.60
2019-02-21T00:43:26.468Z,7.60
2019-02-21T00:46:08.457Z,7.50
2019-02-21T00:48:50.457Z,7.60
2019-02-21T00:51:32.721Z,7.50
2019-02-21T00:54:14.986Z,7.50
2019-02-21T00:56:56.920Z,7.40
2019-02-21T01:03:11.634Z,7.20
2019-02-21T01:05:54.015Z,7.30
2019-02-21T01:08:36.413Z,7.40
2019-02-21T01:11:18.437Z,7.20
2019-02-21T01:14:00.722Z,7.00
2019-02-21T01:16:43.236Z,7.00
2019-02-21T01:19:24.948Z,7.00
2019-02-21T01:22:07.174Z,7.00
2019-02-21T01:24:49.296Z,7.20
2019-02-21T01:27:31.189Z,7.30
2019-02-21T01:30:13.367Z,7.10
2019-02-21T01:32:55.234Z,6.90
2019-02-21T01:35:37.213Z,6.90
2019-02-21T01:38:19.615Z,7.00
2019-02-21T01:41:02.105Z,7.00
2019-02-21T01:43:44.033Z,7.10
2019-02-21T01:46:25.987Z,6.90
2019-02-21T01:49:08.297Z,6.90
2019-02-21T01:51:50.535Z,6.80
2019-02-21T01:54:32.271Z,7.10
2019-02-21T01:57:13.873Z,7.10
2019-02-21T01:59:55.950Z,6.90
2019-02-21T02:02:37.902Z,6.80
2019-02-21T02:05:20.209Z,6.80
2019-02-21T02:08:01.917Z,6.90
2019-02-21T02:10:44.266Z,6.90
2019-02-21T02:13:26.332Z,7.10
2019-02-21T02:16:09.432Z,7.20
2019-02-21T02:18:51.497Z,7.20
2019-02-21T02:21:33.521Z,7.20
2019-02-21T02:24:15.768Z,7.20
2019-02-21T02:26:57.893Z,7.10
2019-02-21T02:29:39.833Z,7.00
2019-02-21T02:32:22.934Z,7.00
2019-02-21T02:35:04.918Z,6.90
2019-02-21T02:37:47.089Z,7.00
2019-02-21T02:40:29.026Z,7.10
2019-02-21T02:43:10.996Z,7.00
2019-02-21T02:45:53.244Z,6.90
2019-02-21T02:48:35.077Z,6.80
2019-02-21T02:51:17.021Z,6.90
2019-02-21T02:53:59.302Z,6.90
2019-02-21T02:56:41.762Z,6.90
2019-02-21T02:59:24.238Z,6.90
2019-02-21T03:02:05.908Z,6.90
2019-02-21T03:08:09.347Z,6.90
2019-02-21T03:10:58.620Z,6.90
2019-02-21T03:13:47.992Z,6.80
2019-02-21T03:16:37.388Z,6.90
2019-02-21T03:19:26.956Z,6.80
2019-02-21T03:22:16.332Z,6.80
2019-02-21T03:25:05.948Z,6.90
2019-02-21T03:27:55.389Z,7.00
2019-02-21T03:30:44.925Z,7.00
2019-02-21T03:33:34.309Z,7.00
2019-02-21T03:36:23.678Z,7.00
2019-02-21T03:39:13.019Z,7.00
2019-02-21T03:42:02.407Z,6.90
2019-02-21T03:47:40.386Z,7.00
2019-02-21T03:50:29.684Z,6.90
2019-02-21T03:53:18.949Z,6.90
2019-02-21T03:58:56.952Z,6.90
2019-02-21T04:01:46.397Z,6.90
2019-02-21T04:04:35.733Z,6.80
2019-02-21T04:07:25.036Z,6.90
2019-02-21T04:10:07.434Z,6.90
2019-02-21T04:12:49.718Z,6.90
2019-02-21T04:15:31.871Z,6.90
2019-02-21T04:18:13.692Z,6.80
2019-02-21T04:20:55.249Z,6.90
2019-02-21T04:23:37.653Z,6.90
2019-02-21T04:26:19.957Z,6.90
2019-02-21T04:32:03.134Z,6.80
2019-02-21T04:37:44.302Z,6.80
2019-02-21T04:40:25.997Z,6.60
2019-02-21T04:43:07.664Z,6.30
2019-02-21T04:45:49.981Z,6.40
2019-02-21T04:48:32.385Z,6.60
2019-02-21T04:51:14.479Z,6.70
2019-02-21T04:53:56.303Z,6.70
2019-02-21T04:56:38.206Z,6.80
2019-02-21T04:59:19.822Z,6.70
2019-02-21T05:02:01.459Z,6.80
2019-02-21T05:04:43.036Z,6.90
2019-02-21T05:07:25.299Z,6.70
2019-02-21T05:10:07.308Z,6.40
2019-02-21T05:12:49.519Z,6.60
2019-02-21T05:15:31.568Z,6.40
2019-02-21T05:18:13.349Z,6.40
2019-02-21T05:20:55.458Z,6.30
2019-02-21T05:23:37.049Z,6.30
2019-02-21T05:26:24.238Z,6.40
2019-02-21T05:29:08.469Z,6.10
2019-02-21T05:32:12.391Z,6.40
2019-02-21T05:35:06.252Z,6.40
2019-02-21T05:38:07.781Z,6.70
2019-02-21T05:41:08.709Z,6.70
2019-02-21T05:44:12.519Z,6.80
2019-02-21T05:47:13.315Z,6.90
2019-02-21T05:50:06.465Z,6.90
2019-02-21T05:53:07.855Z,6.80
2019-02-21T05:55:58.718Z,6.80
2019-02-21T05:58:59.918Z,6.90
2019-02-21T06:02:00.544Z,6.90
2019-02-21T06:05:01.100Z,6.70
2019-02-21T06:11:03.707Z,6.70
2019-02-21T06:14:04.477Z,6.50
2019-02-21T06:17:05.255Z,6.50
2019-02-21T06:20:05.731Z,6.50
2019-02-21T06:22:55.751Z,6.60
2019-02-21T06:25:59.155Z,6.50
2019-02-21T06:28:54.178Z,6.40
2019-02-21T06:31:35.778Z,6.40
2019-02-21T06:34:18.137Z,6.40
2019-02-21T06:37:00.175Z,6.60
2019-02-21T06:39:42.345Z,6.60
2019-02-21T06:42:24.155Z,6.80
2019-02-21T06:45:05.894Z,6.80
2019-02-21T06:47:48.365Z,6.80
2019-02-21T06:50:30.411Z,6.80
2019-02-21T06:53:12.486Z,6.80
2019-02-21T06:55:54.482Z,6.90
2019-02-21T06:58:36.779Z,7.10
2019-02-21T07:01:26.730Z,7.10
2019-02-21T07:04:02.026Z,7.00
2019-02-21T07:06:44.379Z,7.00
2019-02-21T07:09:26.888Z,7.00
2019-02-21T07:12:10.644Z,6.90
2019-02-21T07:14:52.838Z,6.80
2019-02-21T07:17:34.657Z,6.90
2019-02-21T07:20:17.013Z,6.70
2019-02-21T07:22:58.865Z,6.90
2019-02-21T07:25:44.267Z,7.10
2019-02-21T07:28:27.861Z,7.30
2019-02-21T07:31:09.542Z,7.80
2019-02-21T07:33:51.383Z,8.30
2019-02-21T07:36:33.681Z,8.20
2019-02-21T07:39:19.795Z,7.90
2019-02-21T07:41:59.527Z,7.90
2019-02-21T07:44:41.653Z,7.80
2019-02-21T07:47:23.926Z,7.80
2019-02-21T07:50:04.768Z,7.70
2019-02-21T07:53:01.994Z,7.70
2019-02-21T07:56:04.586Z,7.80
2019-02-21T07:58:53.953Z,8.00
2019-02-21T08:01:43.241Z,8.10
2019-02-21T08:04:32.614Z,8.10
2019-02-21T08:07:21.995Z,8.10
2019-02-21T08:10:11.375Z,8.20
2019-02-21T08:13:00.742Z,8.30
2019-02-21T08:15:50.138Z,8.30
2019-02-21T08:18:39.498Z,8.40
2019-02-21T08:21:21.750Z,8.40
2019-02-21T08:24:03.597Z,8.40
2019-02-21T08:26:46.051Z,8.50
2019-02-21T08:29:28.384Z,8.60
2019-02-21T08:32:11.566Z,8.70
2019-02-21T08:34:54.138Z,8.70
2019-02-21T08:37:36.422Z,8.70
2019-02-21T08:40:18.687Z,8.70
2019-02-21T08:43:00.736Z,8.60
2019-02-21T08:45:42.828Z,8.80
2019-02-21T08:48:25.231Z,8.90
2019-02-21T08:51:07.829Z,9.00
2019-02-21T08:53:49.702Z,9.10
2019-02-21T08:56:31.721Z,9.00
2019-02-21T08:59:13.381Z,8.90
2019-02-21T09:01:55.348Z,8.80
2019-02-21T09:04:37.535Z,8.80
2019-02-21T09:07:19.342Z,8.80
2019-02-21T09:10:01.792Z,8.70
2019-02-21T09:12:48.037Z,8.80
2019-02-21T09:15:28.507Z,8.80
2019-02-21T09:18:10.793Z,9.00
2019-02-21T09:20:52.493Z,9.10
2019-02-21T09:23:34.681Z,9.30
2019-02-21T09:26:16.946Z,9.40
2019-02-21T09:28:58.920Z,9.60
2019-02-21T09:31:40.775Z,9.80
2019-02-21T09:34:22.835Z,9.90
2019-02-21T09:37:05.535Z,10.00
2019-02-21T09:39:47.136Z,10.20
2019-02-21T09:42:28.894Z,10.50
2019-02-21T09:45:11.286Z,10.90
2019-02-21T09:47:53.498Z,11.00
2019-02-21T09:50:35.943Z,11.10
2019-02-21T09:53:18.093Z,11.00
2019-02-21T09:56:00.265Z,10.80
2019-02-21T09:58:42.178Z,10.80
2019-02-21T10:01:23.689Z,10.70
2019-02-21T10:04:06.019Z,10.80
2019-02-21T10:06:47.718Z,10.80
2019-02-21T10:09:29.765Z,10.90
2019-02-21T10:12:12.098Z,11.00
2019-02-21T10:14:54.156Z,11.20
2019-02-21T10:17:35.844Z,11.50
2019-02-21T10:20:18.363Z,11.50
2019-02-21T10:22:48.738Z,11.40
2019-02-21T10:25:38.160Z,11.30
2019-02-21T10:28:27.655Z,11.20
2019-02-21T10:31:16.984Z,11.20
2019-02-21T10:34:06.321Z,11.40
2019-02-21T10:36:55.740Z,11.70
2019-02-21T10:39:47.705Z,11.80
2019-02-21T10:42:55.605Z,12.00
2019-02-21T10:45:47.726Z,11.90
2019-02-21T10:48:55.493Z,12.10
2019-02-21T10:51:44.909Z,12.20
2019-02-21T10:54:34.303Z,12.50
2019-02-21T10:57:23.664Z,12.80
2019-02-21T11:00:14.308Z,12.80
2019-02-21T11:03:03.734Z,12.70
2019-02-21T11:05:53.112Z,12.70
2019-02-21T11:08:42.673Z,13.00
2019-02-21T11:11:32.073Z,13.20
2019-02-21T11:14:21.613Z,13.40
2019-02-21T11:17:11.039Z,13.50
2019-02-21T11:20:00.409Z,13.30
2019-02-21T11:22:42.282Z,13.10
2019-02-21T11:25:25.043Z,13.10
2019-02-21T11:31:06.869Z,13.20
2019-02-21T11:33:48.808Z,13.30
2019-02-21T11:36:31.090Z,13.50
2019-02-21T11:39:12.945Z,13.70
2019-02-21T11:41:55.206Z,13.80
2019-02-21T11:47:57.428Z,13.50
2019-02-21T11:50:39.774Z,13.40
2019-02-21T11:53:22.205Z,13.50
2019-02-21T11:56:03.924Z,13.70
2019-02-21T11:58:46.114Z,13.80
2019-02-21T12:01:28.402Z,13.90
2019-02-21T12:04:10.226Z,14.20
2019-02-21T12:06:52.364Z,14.50
2019-02-21T12:09:34.524Z,14.70
2019-02-21T12:12:16.906Z,14.80
2019-02-21T12:14:57.361Z,14.70
2019-02-21T12:17:46.719Z,14.50
2019-02-21T12:20:28.832Z,14.70
2019-02-21T12:23:10.662Z,14.70
2019-02-21T12:25:52.562Z,15.00
2019-02-21T12:28:34.550Z,15.20
2019-02-21T12:31:16.684Z,15.30
2019-02-21T12:33:58.773Z,15.30
2019-02-21T12:36:41.334Z,15.40
2019-02-21T12:39:23.126Z,15.40
2019-02-21T12:42:04.804Z,15.20
2019-02-21T12:44:47.893Z,15.20
2019-02-21T12:47:29.946Z,15.10
2019-02-21T12:50:12.447Z,14.90
2019-02-21T12:52:54.706Z,14.80
2019-02-21T12:55:36.441Z,14.90
2019-02-21T12:58:18.925Z,15.00
2019-02-21T13:01:00.723Z,14.90
2019-02-21T13:03:42.994Z,14.80
2019-02-21T13:06:24.813Z,14.70
2019-02-21T13:09:06.389Z,14.70
2019-02-21T13:11:48.600Z,14.60
2019-02-21T13:14:30.251Z,14.70
2019-02-21T13:17:12.454Z,14.60
2019-02-21T13:19:54.417Z,14.70
2019-02-21T13:22:36.486Z,14.80
2019-02-21T13:25:18.578Z,14.80
2019-02-21T13:28:00.735Z,14.90
2019-02-21T13:30:42.477Z,14.90
2019-02-21T13:33:24.774Z,14.90
2019-02-21T13:36:07.062Z,15.10
2019-02-21T13:38:49.187Z,14.90
2019-02-21T13:41:19.604Z,14.80
2019-02-21T13:44:09.002Z,15.00
2019-02-21T13:46:58.611Z,15.10
2019-02-21T13:49:47.925Z,15.20
2019-02-21T13:52:37.296Z,15.20
2019-02-21T13:55:26.604Z,15.10
2019-02-21T13:58:15.984Z,14.80
2019-02-21T14:01:05.345Z,14.70
2019-02-21T14:03:56.592Z,14.60
2019-02-21T14:07:05.315Z,14.50
2019-02-21T14:09:54.653Z,14.50
2019-02-21T14:12:36.900Z,14.40
2019-02-21T14:15:19.093Z,14.40
2019-02-21T14:18:01.213Z,14.30
2019-02-21T14:20:45.650Z,14.10
2019-02-21T14:23:28.071Z,14.10
2019-02-21T14:26:10.372Z,14.10
2019-02-21T14:28:52.226Z,14.10
2019-02-21T14:31:33.781Z,14.10
2019-02-21T14:34:15.857Z,14.10
2019-02-21T14:36:57.852Z,14.10
2019-02-21T14:39:39.993Z,14.20
2019-02-21T14:42:22.189Z,14.40
2019-02-21T14:45:04.588Z,14.50
2019-02-21T14:47:46.287Z,14.50
2019-02-21T14:50:28.414Z,14.50
2019-02-21T14:53:10.696Z,14.40
2019-02-21T14:55:52.977Z,14.40
2019-02-21T14:58:35.293Z,14.40
2019-02-21T15:01:17.573Z,14.30
2019-02-21T15:03:59.514Z,14.20
2019-02-21T15:06:42.005Z,14.10
2019-02-21T15:09:24.028Z,14.10
2019-02-21T15:12:06.413Z,14.10
2019-02-21T15:14:48.126Z,14.00
2019-02-21T15:17:30.577Z,13.90
2019-02-21T15:20:12.853Z,13.80
2019-02-21T15:22:55.056Z,13.80
2019-02-21T15:25:36.796Z,13.80
2019-02-21T15:28:18.901Z,13.80
2019-02-21T15:31:01.273Z,13.80
2019-02-21T15:33:43.698Z,13.70
2019-02-21T15:39:24.258Z,13.60
2019-02-21T15:42:06.103Z,13.60
2019-02-21T15:44:48.038Z,13.60
2019-02-21T15:47:30.201Z,13.60
2019-02-21T15:50:11.950Z,13.50
2019-02-21T15:52:54.317Z,13.50
2019-02-21T15:55:36.800Z,13.50
2019-02-21T15:58:18.872Z,13.50
2019-02-21T16:01:00.612Z,13.50
2019-02-21T16:03:43.013Z,13.40
2019-02-21T16:06:24.890Z,13.40
2019-02-21T16:12:07.237Z,13.30
2019-02-21T16:14:49.979Z,13.20
2019-02-21T16:17:37.203Z,13.20
2019-02-21T16:20:16.272Z,13.20
2019-02-21T16:22:58.756Z,13.20
2019-02-21T16:25:41.142Z,13.20
2019-02-21T16:28:22.953Z,13.20
2019-02-21T16:31:04.981Z,13.10
2019-02-21T16:33:47.326Z,13.00
2019-02-21T16:36:29.300Z,13.00
2019-02-21T16:39:11.430Z,12.90
2019-02-21T16:41:53.887Z,12.90
2019-02-21T16:44:35.837Z,12.80
2019-02-21T16:47:17.414Z,12.80
2019-02-21T16:49:59.827Z,12.80
2019-02-21T16:52:41.798Z,12.70
2019-02-21T16:55:24.062Z,12.70
2019-02-21T16:58:05.943Z,12.70
2019-02-21T17:00:54.657Z,12.60
2019-02-21T17:03:31.782Z,12.50
2019-02-21T17:06:13.979Z,12.50
2019-02-21T17:08:55.742Z,12.50
2019-02-21T17:11:38.026Z,12.40
2019-02-21T17:14:20.393Z,12.30
2019-02-21T17:17:02.295Z,12.20
2019-02-21T17:19:44.064Z,12.20
2019-02-21T17:22:26.103Z,12.10
2019-02-21T17:25:08.375Z,12.00
2019-02-21T17:27:50.206Z,12.00
2019-02-21T17:30:31.928Z,12.00
2019-02-21T17:33:13.892Z,11.90
2019-02-21T17:35:56.068Z,11.90
2019-02-21T17:38:38.256Z,11.90
2019-02-21T17:41:20.024Z,11.90
2019-02-21T17:44:01.963Z,12.00
2019-02-21T17:46:32.318Z,12.00
2019-02-21T17:49:21.753Z,12.00
2019-02-21T17:52:11.051Z,12.00
2019-02-21T17:55:00.363Z,11.90
2019-02-21T17:57:49.779Z,11.90
2019-02-21T18:03:55.168Z,11.90
2019-02-21T18:06:44.553Z,11.90
2019-02-21T18:09:35.565Z,11.80
2019-02-21T18:12:17.839Z,11.70
2019-02-21T18:15:00.218Z,11.70
2019-02-21T18:17:42.137Z,11.60
2019-02-21T18:20:24.264Z,11.60
2019-02-21T18:23:06.391Z,11.60
2019-02-21T18:25:48.667Z,11.60
2019-02-21T18:28:30.470Z,11.60
2019-02-21T18:31:12.861Z,11.60
2019-02-21T18:33:54.807Z,11.60
2019-02-21T18:36:37.033Z,11.60
2019-02-21T18:39:19.429Z,11.50
2019-02-21T18:41:59.865Z,11.60
2019-02-21T18:44:49.256Z,11.50
2019-02-21T18:47:38.606Z,11.50
2019-02-21T18:50:37.821Z,11.60
2019-02-21T18:53:38.580Z,11.50
2019-02-21T18:56:28.116Z,11.40
2019-02-21T18:59:17.546Z,11.60
2019-02-21T19:04:55.790Z,11.50
2019-02-21T19:07:45.402Z,11.60
2019-02-21T19:10:34.902Z,11.60
2019-02-21T19:13:17.000Z,11.70
2019-02-21T19:15:58.851Z,11.70
2019-02-21T19:18:40.619Z,11.80
2019-02-21T19:21:21.133Z,11.80
2019-02-21T19:24:10.614Z,11.80
2019-02-21T19:27:00.083Z,11.60
2019-02-21T19:29:49.748Z,11.60
2019-02-21T19:32:39.093Z,11.60
2019-02-21T19:35:28.497Z,11.70
2019-02-21T19:38:17.884Z,11.70
2019-02-21T19:41:07.312Z,11.80
2019-02-21T19:43:56.623Z,11.70
2019-02-21T19:47:05.427Z,11.70
2019-02-21T19:49:54.788Z,11.70
2019-02-21T19:52:44.187Z,11.60
2019-02-21T19:55:33.589Z,11.60
2019-02-21T19:58:24.828Z,11.70
2019-02-21T20:01:33.478Z,11.70
2019-02-21T20:04:22.862Z,11.70
2019-02-21T20:07:12.269Z,11.80
2019-02-21T20:10:01.655Z,11.70
2019-02-21T20:12:43.377Z,11.70
2019-02-21T20:15:25.230Z,11.70
2019-02-21T20:18:07.315Z,11.70
2019-02-21T20:20:49.117Z,11.70
2019-02-21T20:23:30.780Z,11.70
2019-02-21T20:26:18.488Z,11.70
2019-02-21T20:28:56.410Z,11.70
2019-02-21T20:31:38.148Z,11.70
2019-02-21T20:34:20.053Z,11.80
2019-02-21T20:37:01.934Z,11.70
2019-02-21T20:39:44.359Z,11.60
2019-02-21T20:45:26.985Z,11.60
2019-02-21T20:48:09.102Z,11.70
2019-02-21T20:50:57.050Z,11.80
2019-02-21T20:53:34.492Z,11.90
2019-02-21T20:56:16.770Z,11.80
2019-02-21T20:58:59.525Z,11.80
2019-02-21T21:01:41.566Z,11.90
2019-02-21T21:04:23.338Z,11.90
2019-02-21T21:07:05.243Z,11.90
2019-02-21T21:09:46.905Z,11.90
2019-02-21T21:12:29.170Z,11.90
2019-02-21T21:15:10.908Z,12.00
2019-02-21T21:17:53.072Z,12.10
2019-02-21T21:20:35.338Z,12.00
2019-02-21T21:23:17.506Z,12.00
2019-02-21T21:25:59.662Z,12.00
2019-02-21T21:28:41.602Z,12.00
2019-02-21T21:31:23.834Z,12.00
2019-02-21T21:34:06.342Z,12.00
2019-02-21T21:36:48.462Z,12.00
2019-02-21T21:39:33.305Z,12.00
2019-02-21T21:42:14.906Z,12.00
2019-02-21T21:44:56.993Z,12.00
2019-02-21T21:47:39.253Z,12.00
2019-02-21T21:50:21.502Z,12.00
2019-02-21T21:53:03.208Z,12.00
2019-02-21T21:55:45.206Z,11.90
2019-02-21T21:58:27.196Z,11.90
2019-02-21T22:01:09.164Z,11.90
2019-02-21T22:03:51.091Z,12.00
2019-02-21T22:06:33.005Z,12.00
2019-02-21T22:09:15.069Z,12.00
2019-02-21T22:11:57.065Z,12.00
2019-02-21T22:14:39.004Z,12.00
2019-02-21T22:17:21.184Z,12.00
2019-02-21T22:20:02.975Z,12.00
2019-02-21T22:22:44.697Z,12.20
2019-02-21T22:25:25.102Z,12.10
2019-02-21T22:31:03.795Z,12.10
2019-02-21T22:33:53.190Z,12.00
2019-02-21T22:36:42.594Z,12.10
2019-02-21T22:39:32.021Z,12.10
2019-02-21T22:42:21.484Z,12.30
2019-02-21T22:45:11.025Z,12.20
2019-02-21T22:48:00.506Z,12.20
2019-02-21T22:53:38.576Z,12.20
2019-02-21T22:56:27.899Z,12.20
2019-02-21T22:59:17.263Z,12.20
2019-02-21T23:02:06.677Z,12.10
2019-02-21T23:05:15.153Z,12.10
2019-02-21T23:08:11.717Z,12.10
2019-02-21T23:11:01.154Z,12.10
2019-02-21T23:13:43.482Z,12.20
2019-02-21T23:16:25.910Z,12.20
2019-02-21T23:19:08.154Z,12.20
2019-02-21T23:21:49.768Z,12.20
2019-02-21T23:24:31.834Z,12.20
2019-02-21T23:27:15.008Z,12.20
2019-02-21T23:29:58.905Z,12.20
2019-02-21T23:32:42.121Z,12.00
2019-02-21T23:35:25.557Z,12.10
2019-02-21T23:38:09.644Z,12.10
2019-02-21T23:40:53.543Z,12.10
2019-02-21T23:43:36.817Z,12.10
2019-02-21T23:46:20.773Z,12.10
2019-02-21T23:49:04.744Z,12.20
2019-02-21T23:51:48.760Z,12.10
2019-02-21T23:54:31.982Z,12.10
2019-02-21T23:57:15.959Z,12.20
2019-02-21T23:59:59.769Z,12.10
